Portada
METAR-TAF:

METAR-TAF

Aeroports :

Makhatxkalà, Rússia

latitud: 42-49-01N, longitud: 047-39-08E, altitud: 4 m

Observació

L'informe es va fer fa 32 minuts, a les 22:00 UTC
Vent 16 kt del Sud/Sud-Est
Temperatura 4°C
Humitat 81%
Pressió 1031 hPa
Visibilitat 10 km o més

METAR: URML 172200Z 16008MPS 9999 NSC 04/01 Q1031 R14/01//70 NOSIG RMK QFE773/1031

Hora: 01:32 (22:32 UTC)

Pronòstic

L'informe es va fer fa 2 hores i 32 minuts, a les 20:00 UTC
Pronòstic vàlid del 17 a les 21 UTC al 18 a les 06 UTC
Vent 16 kt del Sud-Est amb ràfegues de 27 kt
Visibilitat 10 km o més
Núvols disperses a una alçada de 1500 ft
Temporalment
l' 17 a les 21 UTC al 18 a les 03 UTC
Vent 19 kt del Sud/Sud-Est amb ràfegues de 31 kt
Cel ennuvolat a una alçada de 1400 ft

TAF: URML 172000Z 1721/1806 14008G14MPS 9999 SCT015 TEMPO 1721/1803 15010G16MPS BKN014

Observacions i pronòstics meteorològics de més de 4000 aeroports (METAR i TAF).

Les estacions disponibles són els punts grocs i vermells al mapa.

Posi el ratolí al punt desitjat per veure el nom de l'estació.

Feu clic per veure les observacions i els pronòstics meteorològics.

Per canviar el mapa: feu clic els botons verds amb una creu de color negre per apropar; al botó verd amb un guió per allunyar la imatge; o en les fletxes verdes per a mapes adjacents.


METAR-TAF: